Time,TemperatureF,DewpointF,PressureIn,WindDirection,WindDirectionDegrees,WindSpeedMPH,WindSpeedGustMPH,Humidity,HourlyPrecipIn,Conditions,Clouds,dailyrainin,SolarRadiationWatts/m^2,SoftwareType,DateUTC
2013-10-19 00:02:00,55.0,45.0,-100.00,North,2,4.0,6.0,69,0.00,,,0.00,11.000000,,2013-10-19 07:02:00,
2013-10-19 00:11:00,55.0,45.0,-100.00,North,2,4.0,6.0,69,0.00,,,0.00,11.000000,,2013-10-19 07:11:00,
2013-10-19 00:42:00,53.0,43.0,-100.00,North,357,4.0,6.0,69,0.00,,,0.00,11.000000,,2013-10-19 07:42:00,
2013-10-19 00:52:00,53.0,43.0,-100.00,North,357,4.0,6.0,69,0.00,,,0.00,11.000000,,2013-10-19 07:52:00,
2013-10-19 01:03:00,53.0,43.0,-100.00,North,357,4.0,6.0,69,0.00,,,0.00,11.000000,,2013-10-19 08:03:00,
2013-10-19 01:11:00,53.0,43.0,-100.00,North,357,4.0,6.0,69,0.00,,,0.00,11.000000,,2013-10-19 08:11:00,
2013-10-19 01:42:00,52.0,46.0,-100.00,South,189,0.0,5.0,79,0.00,,,0.00,11.000000,,2013-10-19 08:42:00,
2013-10-19 01:52:00,52.0,46.0,-100.00,South,189,0.0,5.0,79,0.00,,,0.00,11.000000,,2013-10-19 08:52:00,
2013-10-19 02:01:00,52.0,46.0,-100.00,South,189,0.0,5.0,79,0.00,,,0.00,11.000000,,2013-10-19 09:01:00,
2013-10-19 02:11:00,52.0,46.0,-100.00,South,189,0.0,5.0,79,0.00,,,0.00,11.000000,,2013-10-19 09:11:00,
2013-10-19 02:43:00,53.0,46.0,-100.00,NNW,338,0.0,3.0,76,0.00,,,0.00,11.000000,,2013-10-19 09:43:00,
2013-10-19 02:54:00,53.0,46.0,-100.00,NNW,338,0.0,3.0,76,0.00,,,0.00,11.000000,,2013-10-19 09:54:00,
2013-10-19 03:03:00,53.0,46.0,-100.00,NNW,338,0.0,3.0,76,0.00,,,0.00,11.000000,,2013-10-19 10:03:00,
2013-10-19 03:13:00,53.0,46.0,-100.00,NNW,338,0.0,3.0,76,0.00,,,0.00,11.000000,,2013-10-19 10:13:00,
2013-10-19 03:42:00,51.0,44.0,-100.00,North,351,1.0,5.0,77,0.00,,,-99.99,10.000000,,2013-10-19 10:42:00,
2013-10-19 03:53:00,51.0,44.0,-100.00,North,351,1.0,5.0,77,0.00,,,-99.99,10.000000,,2013-10-19 10:53:00,
2013-10-19 04:02:00,51.0,44.0,-100.00,North,351,1.0,5.0,77,0.00,,,-99.99,10.000000,,2013-10-19 11:02:00,
2013-10-19 04:11:00,51.0,44.0,-100.00,North,351,1.0,5.0,77,0.00,,,-99.99,10.000000,,2013-10-19 11:11:00,
2013-10-19 04:42:00,54.0,48.0,-100.00,North,11,0.0,4.0,81,0.00,,,-99.99,10.000000,,2013-10-19 11:42:00,
2013-10-19 04:52:00,54.0,48.0,-100.00,North,11,0.0,4.0,81,0.00,,,-99.99,10.000000,,2013-10-19 11:52:00,
2013-10-19 05:01:00,54.0,48.0,-100.00,North,11,0.0,4.0,81,0.00,,,-99.99,10.000000,,2013-10-19 12:01:00,
2013-10-19 05:43:00,53.0,44.0,-100.00,ENE,64,0.0,5.0,72,-99.99,,,0.00,10.000000,,2013-10-19 12:43:00,
2013-10-19 05:52:00,53.0,44.0,-100.00,ENE,64,0.0,5.0,72,-99.99,,,0.00,10.000000,,2013-10-19 12:52:00,
2013-10-19 06:01:00,53.0,44.0,-100.00,ENE,64,0.0,5.0,72,-99.99,,,0.00,10.000000,,2013-10-19 13:01:00,
2013-10-19 06:11:00,53.0,44.0,-100.00,ENE,64,0.0,5.0,72,-99.99,,,0.00,10.000000,,2013-10-19 13:11:00,
2013-10-19 07:52:00,53.0,46.0,-100.00,WSW,247,0.0,0.0,78,-99.99,,,0.00,11.000000,,2013-10-19 14:52:00,
2013-10-19 08:02:00,53.0,46.0,-100.00,WSW,247,0.0,0.0,78,-99.99,,,0.00,11.000000,,2013-10-19 15:02:00,
2013-10-19 08:11:00,53.0,46.0,-100.00,WSW,247,0.0,0.0,78,-99.99,,,0.00,11.000000,,2013-10-19 15:11:00,
2013-10-19 08:44:00,53.0,44.0,-100.00,SW,235,0.0,0.0,72,0.00,,,0.00,21.000000,,2013-10-19 15:44:00,
2013-10-19 13:42:00,66.0,52.0,-100.00,NNW,345,1.0,6.0,60,-99.99,,,0.00,784.000000,,2013-10-19 20:42:00,
2013-10-19 13:52:00,66.0,52.0,-100.00,NNW,345,1.0,6.0,60,-99.99,,,0.00,784.000000,,2013-10-19 20:52:00,
2013-10-19 14:02:00,66.0,52.0,-100.00,NNW,345,1.0,6.0,60,-99.99,,,0.00,784.000000,,2013-10-19 21:02:00,
2013-10-19 14:11:00,66.0,52.0,-100.00,NNW,345,1.0,6.0,60,-99.99,,,0.00,784.000000,,2013-10-19 21:11:00,
2013-10-19 14:14:00,71.0,47.0,-100.00,NNW,344,0.0,4.0,42,0.00,,,-99.99,777.000000,,2013-10-19 21:14:00,
2013-10-19 14:44:00,71.0,47.0,-100.00,NNW,344,0.0,4.0,42,0.00,,,-99.99,777.000000,,2013-10-19 21:44:00,
2013-10-19 14:54:00,71.0,47.0,-100.00,NNW,344,0.0,4.0,42,0.00,,,-99.99,777.000000,,2013-10-19 21:54:00,
2013-10-19 15:04:00,71.0,47.0,-100.00,NNW,344,0.0,4.0,42,0.00,,,-99.99,777.000000,,2013-10-19 22:04:00,
2013-10-19 15:43:00,70.0,55.0,-100.00,North,358,2.0,5.0,58,0.00,,,0.00,694.000000,,2013-10-19 22:43:00,
2013-10-19 15:53:00,70.0,55.0,-100.00,North,358,2.0,5.0,58,0.00,,,0.00,694.000000,,2013-10-19 22:53:00,
2013-10-19 16:03:00,70.0,55.0,-100.00,North,358,2.0,5.0,58,0.00,,,0.00,694.000000,,2013-10-19 23:03:00,
2013-10-19 16:12:00,70.0,55.0,-100.00,North,358,2.0,5.0,58,0.00,,,0.00,694.000000,,2013-10-19 23:12:00,
2013-10-19 16:42:00,66.0,56.0,-100.00,North,356,3.0,6.0,69,0.00,,,0.00,533.000000,,2013-10-19 23:42:00,
2013-10-19 16:52:00,66.0,56.0,-100.00,North,356,3.0,6.0,69,0.00,,,0.00,533.000000,,2013-10-19 23:52:00,
2013-10-19 17:02:00,66.0,56.0,-100.00,North,356,3.0,6.0,69,0.00,,,0.00,533.000000,,2013-10-20 00:02:00,
2013-10-19 17:11:00,66.0,56.0,-100.00,North,356,3.0,6.0,69,0.00,,,0.00,533.000000,,2013-10-20 00:11:00,
2013-10-19 17:42:00,63.0,55.0,-100.00,North,354,3.0,6.0,75,0.00,,,0.00,279.000000,,2013-10-20 00:42:00,
2013-10-19 17:52:00,63.0,55.0,-100.00,North,354,3.0,6.0,75,0.00,,,0.00,279.000000,,2013-10-20 00:52:00,
2013-10-19 18:02:00,63.0,55.0,-100.00,North,354,3.0,6.0,75,0.00,,,0.00,279.000000,,2013-10-20 01:02:00,
2013-10-19 18:11:00,63.0,55.0,-100.00,North,354,3.0,6.0,75,0.00,,,0.00,279.000000,,2013-10-20 01:11:00,
2013-10-19 18:42:00,55.0,51.0,-100.00,North,353,3.0,6.0,86,0.00,,,0.00,53.000000,,2013-10-20 01:42:00,
2013-10-19 18:52:00,55.0,51.0,-100.00,North,353,3.0,6.0,86,0.00,,,0.00,53.000000,,2013-10-20 01:52:00,
2013-10-19 19:02:00,55.0,51.0,-100.00,North,353,3.0,6.0,86,0.00,,,0.00,53.000000,,2013-10-20 02:02:00,
2013-10-19 19:11:00,55.0,51.0,-100.00,North,353,3.0,6.0,86,0.00,,,0.00,53.000000,,2013-10-20 02:11:00,
2013-10-19 19:42:00,56.0,51.0,-100.00,North,359,4.0,6.0,84,0.00,,,0.00,15.000000,,2013-10-20 02:42:00,
2013-10-19 19:52:00,56.0,51.0,-100.00,North,359,4.0,6.0,84,0.00,,,0.00,15.000000,,2013-10-20 02:52:00,
2013-10-19 20:02:00,56.0,51.0,-100.00,North,359,4.0,6.0,84,0.00,,,0.00,15.000000,,2013-10-20 03:02:00,
2013-10-19 20:11:00,56.0,51.0,-100.00,North,359,4.0,6.0,84,0.00,,,0.00,15.000000,,2013-10-20 03:11:00,
2013-10-19 20:14:00,53.0,50.0,-100.00,North,0,3.0,7.0,90,0.00,,,0.00,12.000000,,2013-10-20 03:14:00,
2013-10-19 20:44:00,53.0,50.0,-100.00,North,0,3.0,7.0,90,0.00,,,0.00,12.000000,,2013-10-20 03:44:00,
2013-10-19 20:54:00,53.0,50.0,-100.00,North,0,3.0,7.0,90,0.00,,,0.00,12.000000,,2013-10-20 03:54:00,
2013-10-19 21:02:00,-999.0,-99.9,-100.00,North,0,3.0,7.0,-999,-99.99,,,-99.99,12.000000,,2013-10-20 04:02:00,
2013-10-19 21:44:00,56.0,50.0,-100.00,NE,37,3.0,5.0,80,0.00,,,-99.99,11.000000,,2013-10-20 04:44:00,
2013-10-19 21:54:00,56.0,50.0,-100.00,NE,37,3.0,5.0,80,0.00,,,-99.99,11.000000,,2013-10-20 04:54:00,
2013-10-19 22:04:00,56.0,50.0,-100.00,NE,37,3.0,5.0,80,0.00,,,-99.99,11.000000,,2013-10-20 05:04:00,
2013-10-19 22:13:00,56.0,50.0,-100.00,NE,37,3.0,5.0,80,0.00,,,-99.99,11.000000,,2013-10-20 05:13:00,
2013-10-19 22:43:00,55.0,51.0,-100.00,SSW,194,3.0,5.0,87,0.00,,,0.00,11.000000,,2013-10-20 05:43:00,
2013-10-19 22:52:00,55.0,51.0,-100.00,SSW,194,3.0,5.0,87,0.00,,,0.00,11.000000,,2013-10-20 05:52:00,
2013-10-19 23:02:00,55.0,51.0,-100.00,SSW,194,3.0,5.0,87,0.00,,,0.00,11.000000,,2013-10-20 06:02:00,
2013-10-19 23:12:00,55.0,51.0,-100.00,SSW,194,3.0,5.0,87,0.00,,,0.00,11.000000,,2013-10-20 06:12:00,
2013-10-19 23:42:00,53.0,50.0,-100.00,North,5,1.0,5.0,90,0.00,,,-99.99,11.000000,,2013-10-20 06:42:00,
2013-10-19 23:52:00,53.0,50.0,-100.00,North,5,1.0,5.0,90,0.00,,,-99.99,11.000000,,2013-10-20 06:52:00,